2TN0 weather

Hospital Wing Heliport
Memphis, Tennessee, United States

Public forecast

Using degrees Fahrenheit for public forecast. Weather courtesy of forecast.io.

Closest aviation weather report (METAR) to Hospital Wing Heliport

Closest report is Memphis International Airport, 6.5 nm (12.0 km) SSE. Retrieved 2020/08/08 07:54 UTC (1 hour ago):

KMEM 080754Z 08005KT 10SM CLR 24/19 A3011 RMK AO2 SLP192 T02440189

Closest aviation forecast (TAF) to Hospital Wing Heliport

Closest forecast is Memphis International Airport, 6.5 nm (12.0 km) SSE. Retrieved 2020/08/08 06:22 UTC (3 hours ago):

TAF KMEM 080520Z 0806/0912 07005KT P6SM FEW250 FM081400 18004KT P6SM FEW250 FM081800 23005KT P6SM FEW250 FM090300 16003KT P6SM FEW250